sensor_id;sensor_type;location;lat;lon;timestamp;temperature;humidity
70300;HTU21D;57704;51.112;5.878;2023-07-24T00:00:33;18.78;85.30
70300;HTU21D;57704;51.112;5.878;2023-07-24T00:03:02;18.74;85.43
70300;HTU21D;57704;51.112;5.878;2023-07-24T00:05:29;18.76;85.60
70300;HTU21D;57704;51.112;5.878;2023-07-24T00:07:54;18.79;85.83
70300;HTU21D;57704;51.112;5.878;2023-07-24T00:10:20;18.83;85.91
70300;HTU21D;57704;51.112;5.878;2023-07-24T00:12:46;18.89;85.87
70300;HTU21D;57704;51.112;5.878;2023-07-24T00:15:12;18.92;85.88
70300;HTU21D;57704;51.112;5.878;2023-07-24T00:17:37;18.94;85.95
70300;HTU21D;57704;51.112;5.878;2023-07-24T00:20:04;18.97;85.96
70300;HTU21D;57704;51.112;5.878;2023-07-24T00:22:30;18.98;86.03
70300;HTU21D;57704;51.112;5.878;2023-07-24T00:24:55;19.01;86.05
70300;HTU21D;57704;51.112;5.878;2023-07-24T00:27:21;19.01;86.06
70300;HTU21D;57704;51.112;5.878;2023-07-24T00:29:47;19.02;86.18
70300;HTU21D;57704;51.112;5.878;2023-07-24T00:32:13;19.05;86.23
70300;HTU21D;57704;51.112;5.878;2023-07-24T00:34:39;19.03;86.16
70300;HTU21D;57704;51.112;5.878;2023-07-24T00:37:05;19.00;86.21
70300;HTU21D;57704;51.112;5.878;2023-07-24T00:39:30;18.99;86.38
70300;HTU21D;57704;51.112;5.878;2023-07-24T00:41:57;19.00;86.42
70300;HTU21D;57704;51.112;5.878;2023-07-24T00:44:22;19.01;86.45
70300;HTU21D;57704;51.112;5.878;2023-07-24T00:46:49;18.99;86.46
70300;HTU21D;57704;51.112;5.878;2023-07-24T00:49:16;18.99;86.51
70300;HTU21D;57704;51.112;5.878;2023-07-24T00:51:42;18.97;86.61
70300;HTU21D;57704;51.112;5.878;2023-07-24T00:54:11;18.95;86.74
70300;HTU21D;57704;51.112;5.878;2023-07-24T00:56:37;18.94;86.75
70300;HTU21D;57704;51.112;5.878;2023-07-24T00:59:03;18.93;86.87
70300;HTU21D;57704;51.112;5.878;2023-07-24T01:01:29;18.94;86.94
70300;HTU21D;57704;51.112;5.878;2023-07-24T01:03:57;18.95;86.90
70300;HTU21D;57704;51.112;5.878;2023-07-24T01:06:23;18.98;87.02
70300;HTU21D;57704;51.112;5.878;2023-07-24T01:08:49;19.01;86.98
70300;HTU21D;57704;51.112;5.878;2023-07-24T01:11:19;19.05;86.93
70300;HTU21D;57704;51.112;5.878;2023-07-24T01:16:41;19.02;86.92
70300;HTU21D;57704;51.112;5.878;2023-07-24T01:27:34;19.05;87.13
70300;HTU21D;57704;51.112;5.878;2023-07-24T01:30:00;19.07;87.26
70300;HTU21D;57704;51.112;5.878;2023-07-24T01:32:26;19.09;87.15
70300;HTU21D;57704;51.112;5.878;2023-07-24T01:34:52;19.09;87.13
70300;HTU21D;57704;51.112;5.878;2023-07-24T01:37:20;19.10;87.20
70300;HTU21D;57704;51.112;5.878;2023-07-24T01:39:48;19.12;87.17
70300;HTU21D;57704;51.112;5.878;2023-07-24T01:42:15;19.14;87.19
70300;HTU21D;57704;51.112;5.878;2023-07-24T01:44:40;19.14;87.14
70300;HTU21D;57704;51.112;5.878;2023-07-24T01:47:06;19.16;87.15
70300;HTU21D;57704;51.112;5.878;2023-07-24T01:49:32;19.15;87.22
70300;HTU21D;57704;51.112;5.878;2023-07-24T01:51:58;19.18;87.13
70300;HTU21D;57704;51.112;5.878;2023-07-24T01:54:24;19.17;87.17
70300;HTU21D;57704;51.112;5.878;2023-07-24T01:56:50;19.18;87.19
70300;HTU21D;57704;51.112;5.878;2023-07-24T01:59:16;19.20;87.11
70300;HTU21D;57704;51.112;5.878;2023-07-24T02:01:42;19.16;87.16
70300;HTU21D;57704;51.112;5.878;2023-07-24T02:04:07;19.11;87.35
70300;HTU21D;57704;51.112;5.878;2023-07-24T02:06:34;19.14;87.51
70300;HTU21D;57704;51.112;5.878;2023-07-24T02:08:59;19.20;87.55
70300;HTU21D;57704;51.112;5.878;2023-07-24T02:11:25;19.23;87.55
70300;HTU21D;57704;51.112;5.878;2023-07-24T02:13:51;19.21;87.41
70300;HTU21D;57704;51.112;5.878;2023-07-24T02:16:17;19.18;87.49
70300;HTU21D;57704;51.112;5.878;2023-07-24T02:18:43;19.20;87.54
70300;HTU21D;57704;51.112;5.878;2023-07-24T02:21:09;19.16;87.60
70300;HTU21D;57704;51.112;5.878;2023-07-24T02:23:35;19.15;87.64
70300;HTU21D;57704;51.112;5.878;2023-07-24T02:26:01;19.14;87.70
70300;HTU21D;57704;51.112;5.878;2023-07-24T02:28:27;19.12;87.61
70300;HTU21D;57704;51.112;5.878;2023-07-24T02:30:52;19.07;87.75
70300;HTU21D;57704;51.112;5.878;2023-07-24T02:33:22;19.01;87.85
70300;HTU21D;57704;51.112;5.878;2023-07-24T02:35:50;18.97;88.02
70300;HTU21D;57704;51.112;5.878;2023-07-24T02:38:16;18.97;88.02
70300;HTU21D;57704;51.112;5.878;2023-07-24T02:40:44;18.95;88.09
70300;HTU21D;57704;51.112;5.878;2023-07-24T02:43:09;18.94;88.12
70300;HTU21D;57704;51.112;5.878;2023-07-24T02:45:37;18.94;88.23
70300;HTU21D;57704;51.112;5.878;2023-07-24T02:48:03;18.94;88.37
70300;HTU21D;57704;51.112;5.878;2023-07-24T02:50:29;18.94;88.28
70300;HTU21D;57704;51.112;5.878;2023-07-24T02:52:55;18.93;88.34
70300;HTU21D;57704;51.112;5.878;2023-07-24T02:55:21;18.92;88.30
70300;HTU21D;57704;51.112;5.878;2023-07-24T02:57:47;18.86;88.35
70300;HTU21D;57704;51.112;5.878;2023-07-24T03:00:13;18.82;88.52
70300;HTU21D;57704;51.112;5.878;2023-07-24T03:02:39;18.82;88.66
70300;HTU21D;57704;51.112;5.878;2023-07-24T03:05:05;18.86;88.54
70300;HTU21D;57704;51.112;5.878;2023-07-24T03:07:32;18.85;88.54
70300;HTU21D;57704;51.112;5.878;2023-07-24T03:09:57;18.84;88.55
70300;HTU21D;57704;51.112;5.878;2023-07-24T03:12:23;18.82;88.72
70300;HTU21D;57704;51.112;5.878;2023-07-24T03:14:49;18.84;88.71
70300;HTU21D;57704;51.112;5.878;2023-07-24T03:17:15;18.87;88.70
70300;HTU21D;57704;51.112;5.878;2023-07-24T03:19:41;18.85;88.83
70300;HTU21D;57704;51.112;5.878;2023-07-24T03:22:07;18.83;88.92
70300;HTU21D;57704;51.112;5.878;2023-07-24T03:24:34;18.79;88.76
70300;HTU21D;57704;51.112;5.878;2023-07-24T03:27:00;18.74;88.93
70300;HTU21D;57704;51.112;5.878;2023-07-24T03:29:26;18.70;88.86
70300;HTU21D;57704;51.112;5.878;2023-07-24T03:31:53;18.69;88.89
70300;HTU21D;57704;51.112;5.878;2023-07-24T03:34:18;18.69;88.87
70300;HTU21D;57704;51.112;5.878;2023-07-24T03:36:44;18.70;89.02
70300;HTU21D;57704;51.112;5.878;2023-07-24T03:39:10;18.70;88.95
70300;HTU21D;57704;51.112;5.878;2023-07-24T03:41:42;18.71;88.77
70300;HTU21D;57704;51.112;5.878;2023-07-24T03:44:08;18.67;88.95
70300;HTU21D;57704;51.112;5.878;2023-07-24T03:46:34;18.67;89.15
70300;HTU21D;57704;51.112;5.878;2023-07-24T03:49:00;18.69;89.18
70300;HTU21D;57704;51.112;5.878;2023-07-24T03:51:26;18.71;89.02
70300;HTU21D;57704;51.112;5.878;2023-07-24T03:53:52;18.70;89.05
70300;HTU21D;57704;51.112;5.878;2023-07-24T03:56:18;18.68;89.09
70300;HTU21D;57704;51.112;5.878;2023-07-24T03:58:45;18.69;89.24
70300;HTU21D;57704;51.112;5.878;2023-07-24T04:01:11;18.66;89.22
70300;HTU21D;57704;51.112;5.878;2023-07-24T04:03:37;18.67;89.25
70300;HTU21D;57704;51.112;5.878;2023-07-24T04:06:03;18.68;89.38
70300;HTU21D;57704;51.112;5.878;2023-07-24T04:08:28;18.70;89.25
70300;HTU21D;57704;51.112;5.878;2023-07-24T04:10:54;18.66;89.20
70300;HTU21D;57704;51.112;5.878;2023-07-24T04:13:22;18.66;89.41
70300;HTU21D;57704;51.112;5.878;2023-07-24T04:15:48;18.68;89.52
70300;HTU21D;57704;51.112;5.878;2023-07-24T04:18:14;18.70;89.49
70300;HTU21D;57704;51.112;5.878;2023-07-24T04:20:39;18.71;89.41
70300;HTU21D;57704;51.112;5.878;2023-07-24T04:23:05;18.68;89.46
70300;HTU21D;57704;51.112;5.878;2023-07-24T04:25:31;18.67;89.47
70300;HTU21D;57704;51.112;5.878;2023-07-24T04:27:57;18.70;89.53
70300;HTU21D;57704;51.112;5.878;2023-07-24T04:30:22;18.68;89.54
70300;HTU21D;57704;51.112;5.878;2023-07-24T04:32:48;18.68;89.57
70300;HTU21D;57704;51.112;5.878;2023-07-24T04:35:15;18.70;89.59
70300;HTU21D;57704;51.112;5.878;2023-07-24T04:37:41;18.71;89.60
70300;HTU21D;57704;51.112;5.878;2023-07-24T04:40:07;18.72;89.60
70300;HTU21D;57704;51.112;5.878;2023-07-24T04:42:33;18.71;89.60
70300;HTU21D;57704;51.112;5.878;2023-07-24T04:44:59;18.72;89.57
70300;HTU21D;57704;51.112;5.878;2023-07-24T04:47:24;18.74;89.65
70300;HTU21D;57704;51.112;5.878;2023-07-24T04:49:50;18.77;89.57
70300;HTU21D;57704;51.112;5.878;2023-07-24T04:52:16;18.77;89.58
70300;HTU21D;57704;51.112;5.878;2023-07-24T04:54:42;18.77;89.54
70300;HTU21D;57704;51.112;5.878;2023-07-24T04:57:07;18.79;89.69
70300;HTU21D;57704;51.112;5.878;2023-07-24T04:59:33;18.81;89.59
70300;HTU21D;57704;51.112;5.878;2023-07-24T05:01:59;18.77;89.56
70300;HTU21D;57704;51.112;5.878;2023-07-24T05:04:25;18.78;89.51
70300;HTU21D;57704;51.112;5.878;2023-07-24T05:06:50;18.76;89.60
70300;HTU21D;57704;51.112;5.878;2023-07-24T05:09:16;18.76;89.70
70300;HTU21D;57704;51.112;5.878;2023-07-24T05:11:42;18.80;89.70
70300;HTU21D;57704;51.112;5.878;2023-07-24T05:14:10;18.79;89.66
70300;HTU21D;57704;51.112;5.878;2023-07-24T05:16:36;18.79;89.66
70300;HTU21D;57704;51.112;5.878;2023-07-24T05:19:02;18.79;89.64
70300;HTU21D;57704;51.112;5.878;2023-07-24T05:21:28;18.81;89.76
70300;HTU21D;57704;51.112;5.878;2023-07-24T05:23:54;18.83;89.68
70300;HTU21D;57704;51.112;5.878;2023-07-24T05:26:20;18.89;89.74
70300;HTU21D;57704;51.112;5.878;2023-07-24T05:28:47;18.98;89.86
70300;HTU21D;57704;51.112;5.878;2023-07-24T05:31:13;19.06;89.79
70300;HTU21D;57704;51.112;5.878;2023-07-24T05:33:39;19.14;89.80
70300;HTU21D;57704;51.112;5.878;2023-07-24T05:36:05;19.21;89.49
70300;HTU21D;57704;51.112;5.878;2023-07-24T05:38:31;19.23;89.44
70300;HTU21D;57704;51.112;5.878;2023-07-24T05:40:59;19.24;89.42
70300;HTU21D;57704;51.112;5.878;2023-07-24T05:43:26;19.25;89.15
70300;HTU21D;57704;51.112;5.878;2023-07-24T05:45:53;19.21;89.20
70300;HTU21D;57704;51.112;5.878;2023-07-24T05:48:20;19.17;89.18
70300;HTU21D;57704;51.112;5.878;2023-07-24T05:50:46;19.20;89.31
70300;HTU21D;57704;51.112;5.878;2023-07-24T05:53:11;19.24;89.38
70300;HTU21D;57704;51.112;5.878;2023-07-24T05:55:37;19.25;89.16
70300;HTU21D;57704;51.112;5.878;2023-07-24T05:58:03;19.26;89.15
70300;HTU21D;57704;51.112;5.878;2023-07-24T06:00:29;19.24;89.15
70300;HTU21D;57704;51.112;5.878;2023-07-24T06:02:55;19.25;89.02
70300;HTU21D;57704;51.112;5.878;2023-07-24T06:05:20;19.24;88.85
70300;HTU21D;57704;51.112;5.878;2023-07-24T06:07:47;19.18;88.80
70300;HTU21D;57704;51.112;5.878;2023-07-24T06:10:13;19.11;88.67
70300;HTU21D;57704;51.112;5.878;2023-07-24T06:12:39;19.01;88.73
70300;HTU21D;57704;51.112;5.878;2023-07-24T06:15:06;18.88;88.78
70300;HTU21D;57704;51.112;5.878;2023-07-24T06:17:32;18.82;89.00
70300;HTU21D;57704;51.112;5.878;2023-07-24T06:19:58;18.77;89.05
70300;HTU21D;57704;51.112;5.878;2023-07-24T06:22:23;18.65;88.94
70300;HTU21D;57704;51.112;5.878;2023-07-24T06:24:49;18.61;89.16
70300;HTU21D;57704;51.112;5.878;2023-07-24T06:27:16;18.55;89.09
70300;HTU21D;57704;51.112;5.878;2023-07-24T06:29:41;18.52;89.35
70300;HTU21D;57704;51.112;5.878;2023-07-24T06:32:08;18.53;89.33
70300;HTU21D;57704;51.112;5.878;2023-07-24T06:34:34;18.50;89.34
70300;HTU21D;57704;51.112;5.878;2023-07-24T06:37:00;18.52;89.44
70300;HTU21D;57704;51.112;5.878;2023-07-24T06:39:26;18.52;89.33
70300;HTU21D;57704;51.112;5.878;2023-07-24T06:41:55;18.55;89.33
70300;HTU21D;57704;51.112;5.878;2023-07-24T06:44:21;18.53;89.30
70300;HTU21D;57704;51.112;5.878;2023-07-24T06:46:47;18.55;89.54
70300;HTU21D;57704;51.112;5.878;2023-07-24T06:49:13;18.62;89.56
70300;HTU21D;57704;51.112;5.878;2023-07-24T06:51:39;18.63;89.36
70300;HTU21D;57704;51.112;5.878;2023-07-24T06:54:05;18.65;89.52
70300;HTU21D;57704;51.112;5.878;2023-07-24T06:56:31;18.72;89.83
70300;HTU21D;57704;51.112;5.878;2023-07-24T06:58:58;18.91;90.21
70300;HTU21D;57704;51.112;5.878;2023-07-24T07:01:24;19.07;89.96
70300;HTU21D;57704;51.112;5.878;2023-07-24T07:03:50;19.12;89.57
70300;HTU21D;57704;51.112;5.878;2023-07-24T07:06:15;19.15;89.61
70300;HTU21D;57704;51.112;5.878;2023-07-24T07:08:41;19.29;89.87
70300;HTU21D;57704;51.112;5.878;2023-07-24T07:11:07;19.42;89.64
70300;HTU21D;57704;51.112;5.878;2023-07-24T07:13:33;19.44;89.15
70300;HTU21D;57704;51.112;5.878;2023-07-24T07:15:59;19.43;88.92
70300;HTU21D;57704;51.112;5.878;2023-07-24T07:18:25;19.42;88.91
70300;HTU21D;57704;51.112;5.878;2023-07-24T07:20:53;19.38;88.66
70300;HTU21D;57704;51.112;5.878;2023-07-24T07:23:19;19.35;88.85
70300;HTU21D;57704;51.112;5.878;2023-07-24T07:25:45;19.28;88.83
70300;HTU21D;57704;51.112;5.878;2023-07-24T07:28:15;19.27;88.97
70300;HTU21D;57704;51.112;5.878;2023-07-24T07:30:42;19.26;89.05
70300;HTU21D;57704;51.112;5.878;2023-07-24T07:33:09;19.27;89.15
70300;HTU21D;57704;51.112;5.878;2023-07-24T07:35:36;19.30;89.34
70300;HTU21D;57704;51.112;5.878;2023-07-24T07:38:03;19.39;89.60
70300;HTU21D;57704;51.112;5.878;2023-07-24T07:40:29;19.52;89.58
70300;HTU21D;57704;51.112;5.878;2023-07-24T07:42:56;19.56;89.25
70300;HTU21D;57704;51.112;5.878;2023-07-24T07:45:23;19.53;89.10
70300;HTU21D;57704;51.112;5.878;2023-07-24T07:47:50;19.54;89.18
70300;HTU21D;57704;51.112;5.878;2023-07-24T07:50:16;19.65;89.63
70300;HTU21D;57704;51.112;5.878;2023-07-24T07:52:41;19.77;89.61
70300;HTU21D;57704;51.112;5.878;2023-07-24T07:55:08;19.82;89.21
70300;HTU21D;57704;51.112;5.878;2023-07-24T07:57:37;19.82;89.14
70300;HTU21D;57704;51.112;5.878;2023-07-24T08:00:04;19.84;88.77
70300;HTU21D;57704;51.112;5.878;2023-07-24T08:02:32;19.82;88.89
70300;HTU21D;57704;51.112;5.878;2023-07-24T08:05:00;19.79;88.78
70300;HTU21D;57704;51.112;5.878;2023-07-24T08:07:26;19.77;89.04
70300;HTU21D;57704;51.112;5.878;2023-07-24T08:09:51;19.87;89.27
70300;HTU21D;57704;51.112;5.878;2023-07-24T08:12:17;19.83;88.78
70300;HTU21D;57704;51.112;5.878;2023-07-24T08:14:43;19.79;88.86
70300;HTU21D;57704;51.112;5.878;2023-07-24T08:17:09;19.77;89.06
70300;HTU21D;57704;51.112;5.878;2023-07-24T08:19:35;19.79;89.02
70300;HTU21D;57704;51.112;5.878;2023-07-24T08:22:00;19.85;89.55
70300;HTU21D;57704;51.112;5.878;2023-07-24T08:24:27;20.00;90.11
70300;HTU21D;57704;51.112;5.878;2023-07-24T08:26:53;20.24;90.66
70300;HTU21D;57704;51.112;5.878;2023-07-24T08:29:19;20.42;90.79
70300;HTU21D;57704;51.112;5.878;2023-07-24T08:31:45;20.69;91.18
70300;HTU21D;57704;51.112;5.878;2023-07-24T08:34:11;20.78;89.70
70300;HTU21D;57704;51.112;5.878;2023-07-24T08:36:36;20.85;90.71
70300;HTU21D;57704;51.112;5.878;2023-07-24T08:39:03;21.21;91.15
70300;HTU21D;57704;51.112;5.878;2023-07-24T08:41:29;21.66;91.56
70300;HTU21D;57704;51.112;5.878;2023-07-24T08:43:56;22.14;91.46
70300;HTU21D;57704;51.112;5.878;2023-07-24T08:46:22;22.35;88.84
70300;HTU21D;57704;51.112;5.878;2023-07-24T08:48:48;22.35;87.21
70300;HTU21D;57704;51.112;5.878;2023-07-24T08:51:15;22.25;87.05
70300;HTU21D;57704;51.112;5.878;2023-07-24T08:53:50;21.95;85.93
70300;HTU21D;57704;51.112;5.878;2023-07-24T08:56:16;21.80;86.41
70300;HTU21D;57704;51.112;5.878;2023-07-24T08:58:42;21.70;87.00
70300;HTU21D;57704;51.112;5.878;2023-07-24T09:01:08;21.64;86.82
70300;HTU21D;57704;51.112;5.878;2023-07-24T09:03:35;21.65;86.92
70300;HTU21D;57704;51.112;5.878;2023-07-24T09:06:02;21.68;86.09
70300;HTU21D;57704;51.112;5.878;2023-07-24T09:10:57;21.55;85.72
70300;HTU21D;57704;51.112;5.878;2023-07-24T09:13:23;21.45;85.36
70300;HTU21D;57704;51.112;5.878;2023-07-24T09:15:50;21.45;85.75
70300;HTU21D;57704;51.112;5.878;2023-07-24T09:18:16;21.46;85.18
70300;HTU21D;57704;51.112;5.878;2023-07-24T09:20:44;21.38;85.21
70300;HTU21D;57704;51.112;5.878;2023-07-24T09:23:12;21.33;85.55
70300;HTU21D;57704;51.112;5.878;2023-07-24T09:25:40;21.36;85.13
70300;HTU21D;57704;51.112;5.878;2023-07-24T09:28:17;21.27;84.64
70300;HTU21D;57704;51.112;5.878;2023-07-24T09:30:52;21.11;84.74
70300;HTU21D;57704;51.112;5.878;2023-07-24T09:33:18;21.15;85.30
70300;HTU21D;57704;51.112;5.878;2023-07-24T09:35:44;21.19;85.26
70300;HTU21D;57704;51.112;5.878;2023-07-24T09:38:11;21.21;85.06
70300;HTU21D;57704;51.112;5.878;2023-07-24T09:40:42;21.21;84.83
70300;HTU21D;57704;51.112;5.878;2023-07-24T09:43:22;21.30;85.13
70300;HTU21D;57704;51.112;5.878;2023-07-24T09:45:50;21.37;84.84
70300;HTU21D;57704;51.112;5.878;2023-07-24T09:48:18;21.35;84.54
70300;HTU21D;57704;51.112;5.878;2023-07-24T09:50:48;21.29;84.22
70300;HTU21D;57704;51.112;5.878;2023-07-24T09:56:02;21.18;83.59
70300;HTU21D;57704;51.112;5.878;2023-07-24T09:58:29;21.06;84.35
70300;HTU21D;57704;51.112;5.878;2023-07-24T10:00:57;20.95;83.86
70300;HTU21D;57704;51.112;5.878;2023-07-24T10:03:24;20.83;83.91
70300;HTU21D;57704;51.112;5.878;2023-07-24T10:05:50;20.71;83.97
70300;HTU21D;57704;51.112;5.878;2023-07-24T10:08:18;20.49;84.38
70300;HTU21D;57704;51.112;5.878;2023-07-24T10:10:45;20.28;84.48
70300;HTU21D;57704;51.112;5.878;2023-07-24T10:13:12;20.00;85.15
70300;HTU21D;57704;51.112;5.878;2023-07-24T10:15:41;19.76;85.96
70300;HTU21D;57704;51.112;5.878;2023-07-24T10:18:09;19.73;86.54
70300;HTU21D;57704;51.112;5.878;2023-07-24T10:20:40;19.75;86.78
70300;HTU21D;57704;51.112;5.878;2023-07-24T10:23:08;19.74;86.80
70300;HTU21D;57704;51.112;5.878;2023-07-24T10:25:37;19.79;87.06
70300;HTU21D;57704;51.112;5.878;2023-07-24T10:28:08;19.85;86.99
70300;HTU21D;57704;51.112;5.878;2023-07-24T10:30:38;19.90;87.11
70300;HTU21D;57704;51.112;5.878;2023-07-24T10:33:10;19.96;87.16
70300;HTU21D;57704;51.112;5.878;2023-07-24T10:35:49;19.92;86.89
70300;HTU21D;57704;51.112;5.878;2023-07-24T10:38:17;19.82;87.48
70300;HTU21D;57704;51.112;5.878;2023-07-24T10:40:47;19.88;87.55
70300;HTU21D;57704;51.112;5.878;2023-07-24T10:43:19;19.89;87.48
70300;HTU21D;57704;51.112;5.878;2023-07-24T10:45:51;19.81;86.98
70300;HTU21D;57704;51.112;5.878;2023-07-24T10:48:23;19.60;87.09
70300;HTU21D;57704;51.112;5.878;2023-07-24T10:50:51;19.39;87.33
70300;HTU21D;57704;51.112;5.878;2023-07-24T10:53:19;19.07;87.14
70300;HTU21D;57704;51.112;5.878;2023-07-24T10:55:47;18.80;88.01
70300;HTU21D;57704;51.112;5.878;2023-07-24T10:58:14;19.05;89.43
70300;HTU21D;57704;51.112;5.878;2023-07-24T11:00:41;19.44;89.87
70300;HTU21D;57704;51.112;5.878;2023-07-24T11:03:11;20.11;89.60
70300;HTU21D;57704;51.112;5.878;2023-07-24T11:05:45;20.57;88.34
70300;HTU21D;57704;51.112;5.878;2023-07-24T11:10:52;21.05;87.52
70300;HTU21D;57704;51.112;5.878;2023-07-24T11:13:21;21.33;87.12
70300;HTU21D;57704;51.112;5.878;2023-07-24T11:15:49;21.52;86.74
70300;HTU21D;57704;51.112;5.878;2023-07-24T11:18:15;21.88;87.25
70300;HTU21D;57704;51.112;5.878;2023-07-24T11:20:52;22.36;86.02
70300;HTU21D;57704;51.112;5.878;2023-07-24T11:23:19;22.33;83.78
70300;HTU21D;57704;51.112;5.878;2023-07-24T11:25:45;21.97;84.45
70300;HTU21D;57704;51.112;5.878;2023-07-24T11:28:13;21.83;85.05
70300;HTU21D;57704;51.112;5.878;2023-07-24T11:30:40;21.66;85.29
70300;HTU21D;57704;51.112;5.878;2023-07-24T11:33:08;21.61;86.12
70300;HTU21D;57704;51.112;5.878;2023-07-24T11:35:35;21.67;86.22
70300;HTU21D;57704;51.112;5.878;2023-07-24T11:38:02;21.67;85.93
70300;HTU21D;57704;51.112;5.878;2023-07-24T11:40:38;21.53;85.60
70300;HTU21D;57704;51.112;5.878;2023-07-24T11:43:04;21.38;86.00
70300;HTU21D;57704;51.112;5.878;2023-07-24T11:45:30;21.27;85.78
70300;HTU21D;57704;51.112;5.878;2023-07-24T11:47:57;21.06;85.51
70300;HTU21D;57704;51.112;5.878;2023-07-24T11:50:23;20.83;85.88
70300;HTU21D;57704;51.112;5.878;2023-07-24T11:52:51;20.77;86.83
70300;HTU21D;57704;51.112;5.878;2023-07-24T11:55:23;20.77;86.86
70300;HTU21D;57704;51.112;5.878;2023-07-24T11:58:04;20.75;86.97
70300;HTU21D;57704;51.112;5.878;2023-07-24T12:00:33;20.83;87.43
70300;HTU21D;57704;51.112;5.878;2023-07-24T12:03:00;20.98;87.49
70300;HTU21D;57704;51.112;5.878;2023-07-24T12:05:26;21.08;87.09
70300;HTU21D;57704;51.112;5.878;2023-07-24T12:07:54;21.25;86.93
70300;HTU21D;57704;51.112;5.878;2023-07-24T12:10:27;21.72;87.25
70300;HTU21D;57704;51.112;5.878;2023-07-24T12:12:58;22.87;86.86
70300;HTU21D;57704;51.112;5.878;2023-07-24T12:15:24;24.40;84.09
70300;HTU21D;57704;51.112;5.878;2023-07-24T12:17:52;25.76;80.10
70300;HTU21D;57704;51.112;5.878;2023-07-24T12:20:18;26.69;74.25
70300;HTU21D;57704;51.112;5.878;2023-07-24T12:22:44;27.05;75.76
70300;HTU21D;57704;51.112;5.878;2023-07-24T12:25:10;27.09;74.22
70300;HTU21D;57704;51.112;5.878;2023-07-24T12:27:36;26.45;75.47
70300;HTU21D;57704;51.112;5.878;2023-07-24T12:30:04;25.90;76.84
70300;HTU21D;57704;51.112;5.878;2023-07-24T12:32:30;25.72;77.83
70300;HTU21D;57704;51.112;5.878;2023-07-24T12:34:55;25.50;77.70
70300;HTU21D;57704;51.112;5.878;2023-07-24T12:37:21;25.36;78.88
70300;HTU21D;57704;51.112;5.878;2023-07-24T12:39:48;25.96;78.85
70300;HTU21D;57704;51.112;5.878;2023-07-24T12:42:15;26.95;77.06
70300;HTU21D;57704;51.112;5.878;2023-07-24T12:44:42;27.45;66.59
70300;HTU21D;57704;51.112;5.878;2023-07-24T12:47:08;26.96;73.25
70300;HTU21D;57704;51.112;5.878;2023-07-24T12:49:34;26.95;75.14
70300;HTU21D;57704;51.112;5.878;2023-07-24T12:52:00;27.46;74.38
70300;HTU21D;57704;51.112;5.878;2023-07-24T12:54:26;28.10;72.11
70300;HTU21D;57704;51.112;5.878;2023-07-24T12:56:51;27.82;71.52
70300;HTU21D;57704;51.112;5.878;2023-07-24T12:59:18;27.10;71.81
70300;HTU21D;57704;51.112;5.878;2023-07-24T13:01:44;26.46;73.92
70300;HTU21D;57704;51.112;5.878;2023-07-24T13:04:11;26.47;75.31
70300;HTU21D;57704;51.112;5.878;2023-07-24T13:06:37;27.01;73.25
70300;HTU21D;57704;51.112;5.878;2023-07-24T13:09:04;27.31;70.82
70300;HTU21D;57704;51.112;5.878;2023-07-24T13:11:30;27.24;70.58
70300;HTU21D;57704;51.112;5.878;2023-07-24T13:13:56;26.63;70.34
70300;HTU21D;57704;51.112;5.878;2023-07-24T13:16:23;25.92;72.14
70300;HTU21D;57704;51.112;5.878;2023-07-24T13:18:49;25.30;72.95
70300;HTU21D;57704;51.112;5.878;2023-07-24T13:21:15;24.84;74.33
70300;HTU21D;57704;51.112;5.878;2023-07-24T13:23:41;24.41;74.70
70300;HTU21D;57704;51.112;5.878;2023-07-24T13:26:07;24.09;74.50
70300;HTU21D;57704;51.112;5.878;2023-07-24T13:28:36;23.77;74.89
70300;HTU21D;57704;51.112;5.878;2023-07-24T13:33:42;23.12;75.36
70300;HTU21D;57704;51.112;5.878;2023-07-24T13:36:08;23.09;75.87
70300;HTU21D;57704;51.112;5.878;2023-07-24T13:38:35;23.13;73.81
70300;HTU21D;57704;51.112;5.878;2023-07-24T13:41:02;23.15;74.38
70300;HTU21D;57704;51.112;5.878;2023-07-24T13:43:28;23.15;74.73
70300;HTU21D;57704;51.112;5.878;2023-07-24T13:45:54;23.29;74.86
70300;HTU21D;57704;51.112;5.878;2023-07-24T13:48:20;23.43;75.31
70300;HTU21D;57704;51.112;5.878;2023-07-24T13:50:46;23.52;74.25
70300;HTU21D;57704;51.112;5.878;2023-07-24T13:53:12;23.27;73.88
70300;HTU21D;57704;51.112;5.878;2023-07-24T13:55:38;23.10;74.60
70300;HTU21D;57704;51.112;5.878;2023-07-24T13:58:04;23.17;74.96
70300;HTU21D;57704;51.112;5.878;2023-07-24T14:00:30;23.42;73.27
70300;HTU21D;57704;51.112;5.878;2023-07-24T14:02:55;23.58;71.86
70300;HTU21D;57704;51.112;5.878;2023-07-24T14:05:21;23.68;73.11
70300;HTU21D;57704;51.112;5.878;2023-07-24T14:07:47;23.95;72.83
70300;HTU21D;57704;51.112;5.878;2023-07-24T14:10:13;24.30;71.67
70300;HTU21D;57704;51.112;5.878;2023-07-24T14:12:39;24.54;70.42
70300;HTU21D;57704;51.112;5.878;2023-07-24T14:15:05;24.54;69.58
70300;HTU21D;57704;51.112;5.878;2023-07-24T14:17:31;24.66;69.73
70300;HTU21D;57704;51.112;5.878;2023-07-24T14:19:57;24.95;69.51
70300;HTU21D;57704;51.112;5.878;2023-07-24T14:22:22;25.27;68.78
70300;HTU21D;57704;51.112;5.878;2023-07-24T14:24:48;25.37;67.70
70300;HTU21D;57704;51.112;5.878;2023-07-24T14:27:14;25.46;67.00
70300;HTU21D;57704;51.112;5.878;2023-07-24T14:29:40;25.38;66.30
70300;HTU21D;57704;51.112;5.878;2023-07-24T14:32:06;25.24;65.16
70300;HTU21D;57704;51.112;5.878;2023-07-24T14:34:33;25.14;65.68
70300;HTU21D;57704;51.112;5.878;2023-07-24T14:36:59;25.22;64.83
70300;HTU21D;57704;51.112;5.878;2023-07-24T14:39:25;25.12;65.01
70300;HTU21D;57704;51.112;5.878;2023-07-24T14:41:51;24.91;66.34
70300;HTU21D;57704;51.112;5.878;2023-07-24T14:44:17;25.04;66.17
70300;HTU21D;57704;51.112;5.878;2023-07-24T14:46:43;25.27;66.03
70300;HTU21D;57704;51.112;5.878;2023-07-24T14:49:08;25.21;65.17
70300;HTU21D;57704;51.112;5.878;2023-07-24T14:51:34;24.98;64.98
70300;HTU21D;57704;51.112;5.878;2023-07-24T14:54:00;24.73;65.84
70300;HTU21D;57704;51.112;5.878;2023-07-24T14:56:26;24.72;66.88
70300;HTU21D;57704;51.112;5.878;2023-07-24T14:58:52;24.78;65.96
70300;HTU21D;57704;51.112;5.878;2023-07-24T15:01:17;24.79;66.75
70300;HTU21D;57704;51.112;5.878;2023-07-24T15:03:43;24.90;66.25
70300;HTU21D;57704;51.112;5.878;2023-07-24T15:06:09;24.91;65.57
70300;HTU21D;57704;51.112;5.878;2023-07-24T15:08:35;24.79;64.98
70300;HTU21D;57704;51.112;5.878;2023-07-24T15:11:01;24.77;65.60
70300;HTU21D;57704;51.112;5.878;2023-07-24T15:13:27;24.82;65.55
70300;HTU21D;57704;51.112;5.878;2023-07-24T15:15:52;24.85;64.94
70300;HTU21D;57704;51.112;5.878;2023-07-24T15:18:18;24.92;64.91
70300;HTU21D;57704;51.112;5.878;2023-07-24T15:20:44;24.97;64.18
70300;HTU21D;57704;51.112;5.878;2023-07-24T15:23:10;24.85;63.72
70300;HTU21D;57704;51.112;5.878;2023-07-24T15:25:36;24.63;63.07
70300;HTU21D;57704;51.112;5.878;2023-07-24T15:28:02;24.44;62.28
70300;HTU21D;57704;51.112;5.878;2023-07-24T15:30:28;24.27;61.74
70300;HTU21D;57704;51.112;5.878;2023-07-24T15:32:53;24.12;61.05